Lesage, West Virginia
Current Conditions -  °F | °C
As of 3:51 AM on Monday 22 Dec 2014 (Local Time) from KHTS Reporting Station
Overcast Overcast  
Wind Chill: 34°   Ceiling: 4900
Heat Index: 34°   Visibility: 10mi
Dew Point: 28°   Wind: 3mph
Humidity: 79%   Direction: 80°E
Pressure: 30.05"   Gusts: NA
Location:  38.51°N, 82.3°W
Report Text: KHTS 220851Z 08003KT 10SM OVC049 01/M02 A3005 RMK AO2 SLP181 T00111022 56016
Loading
Personal Weather Stations






























Interactive Weather Map New forecast layout! Learn more

10-Day Weather Forecast

Advertisements
Track Severe Weather on mobile